Palmer Park, Maryland
Current Conditions -  °F | °C
As of 4:20 PM on Monday 24 Nov 2014 (Local Time) from KCGS Reporting Station
Clear Clear  
Wind Chill: 72°   Ceiling: Unl
Heat Index: 72°   Visibility: 10mi
Dew Point: 52°   Wind: 7mph
Humidity: 50%   Direction: 190°S
Pressure: 29.64"   Gusts: NA
Location:  38.9183°N, 76.8721°W
Report Text: KCGS 242120Z AUTO 19006KT 10SM CLR 22/11 A2964 RMK AO1
Loading
Personal Weather Stations






























Interactive Weather Map New forecast layout! Learn more

10-Day Weather Forecast

Advertisements
Track Severe Weather on mobile